M Y Odessa — ZCYV3 — position and weather

sailwx.info

Track history (hours):
 
Tides and Currents Weather Stations Pressure Air Temp Water Temp Dewpoint Dewpoint Depression Visibility Wind Speed Wind Dir Waves Ship Positions

M Y Odessa

Last reported at 2018-Jan-27 20:33 UTC. Time now 2018-Feb-21 13:31 UTC.
Position N 24°44' W 077°01'.
Warning: this ship's position is 24 days out of date.

Length 48 m; draft 2.4 m.

Type: Pleasure craft. MMSI: 319010700.

Date/timePositionNaut miles runAvg speedWind from/ knotsBaromVisibWave heightAir tempDewpointWater temp
2018-Jan-27 20:33N 24°44' W 077°01'011.0
2018-Jan-27 20:30N 24°44' W 077°00'611.3
2018-Jan-27 20:00N 24°39' W 076°56'510.5
2018-Jan-27 19:31N 24°35' W 076°53'611.3
2018-Jan-27 19:00N 24°30' W 076°50'  
2018-Jan-23 18:46N 24°31' W 076°49'2 3.5
2018-Jan-23 18:09N 24°33' W 076°49'317.1
2018-Jan-23 18:00N 24°36' W 076°49'0 0.1
2018-Jan-23 17:28N 24°36' W 076°49'4 2.8
2018-Jan-23 16:07N 24°32' W 076°48'0 0.0
2018-Jan-23 15:37N 24°32' W 076°48'0 0.0
2018-Jan-23 15:07N 24°32' W 076°48'0 0.0
2018-Jan-23 14:55N 24°32' W 076°48'0 0.0
2018-Jan-23 11:43N 24°32' W 076°48'0 0.0
2018-Jan-23 11:19N 24°32' W 076°48'0 0.0
2018-Jan-23 08:49N 24°32' W 076°48'0 0.0
2018-Jan-23 08:01N 24°32' W 076°48'0 0.2
2018-Jan-23 07:55N 24°32' W 076°48'0 0.0
2018-Jan-23 07:19N 24°32' W 076°48'0 0.0
2018-Jan-23 06:37N 24°32' W 076°48'0 0.0
2018-Jan-23 06:19N 24°32' W 076°48'0 0.0
2018-Jan-23 05:55N 24°32' W 076°48'0 0.0
2018-Jan-23 05:25N 24°32' W 076°48'0 0.0
2018-Jan-23 04:19N 24°32' W 076°48'0 0.0
2018-Jan-23 03:43N 24°32' W 076°48'0 0.0
2018-Jan-23 03:25N 24°32' W 076°48'0 0.0
2018-Jan-23 02:58N 24°32' W 076°48'0 0.0
2018-Jan-23 02:25N 24°32' W 076°48'0 0.0
2018-Jan-23 01:55N 24°32' W 076°48'0 0.0
2018-Jan-23 01:28N 24°32' W 076°48'0 0.0
2018-Jan-23 00:37N 24°32' W 076°48'0 0.0
2018-Jan-23 00:19N 24°32' W 076°48'0 0.0
2018-Jan-22 23:58N 24°32' W 076°48'0 0.0
2018-Jan-22 23:28N 24°32' W 076°48'0 0.0
2018-Jan-22 22:56N 24°32' W 076°48'0 0.8
2018-Jan-22 22:55N 24°32' W 076°48'3 6.7
2018-Jan-22 22:30N 24°34' W 076°50'3 8.0
2018-Jan-22 22:10N 24°32' W 076°48'4 5.4
2018-Jan-22 21:25N 24°36' W 076°49'0 0.0
2018-Jan-22 20:49N 24°36' W 076°49'2 5.6
2018-Jan-22 20:29N 24°34' W 076°50'3 1.5
2018-Jan-22 18:51N 24°32' W 076°48'1 1.9
2018-Jan-22 18:04N 24°33' W 076°47'0 0.5
2018-Jan-22 17:54N 24°33' W 076°47'1 3.7
2018-Jan-22 17:31N 24°32' W 076°48'0 0.1
2018-Jan-22 17:25N 24°32' W 076°48'015.5
2018-Jan-22 17:23N 24°32' W 076°48'0 0.8
2018-Jan-22 16:52N 24°32' W 076°48'0 2.9
2018-Jan-22 16:42N 24°32' W 076°48'0 1.1
2018-Jan-22 16:19N 24°32' W 076°48'0 0.0
2018-Jan-22 15:44N 24°32' W 076°48'0 1.1
2018-Jan-22 15:29N 24°32' W 076°48'4 8.9
2018-Jan-22 15:00N 24°35' W 076°52'5 9.3
2018-Jan-22 14:30N 24°39' W 076°52'4 8.2
2018-Jan-22 14:01N 24°43' W 076°50'0 0.0
2018-Jan-22 13:29N 24°43' W 076°50'0 0.0
2018-Jan-22 12:59N 24°43' W 076°50'0 0.0
2018-Jan-22 12:29N 24°43' W 076°50'0 0.0
2018-Jan-22 11:59N 24°43' W 076°50'0 0.0
2018-Jan-22 11:29N 24°43' W 076°50'0 0.0
2018-Jan-22 10:59N 24°43' W 076°50'0 0.0
2018-Jan-22 10:29N 24°43' W 076°50'0 0.0
2018-Jan-22 09:59N 24°43' W 076°50'0 0.0
2018-Jan-22 09:29N 24°43' W 076°50'0 0.0
2018-Jan-22 08:59N 24°43' W 076°50'0 0.0
2018-Jan-22 08:29N 24°43' W 076°50'0 0.0
2018-Jan-22 07:59N 24°43' W 076°50'0 0.0
2018-Jan-22 07:29N 24°43' W 076°50'0 0.0
2018-Jan-22 06:59N 24°43' W 076°50'0 0.0
2018-Jan-22 06:29N 24°43' W 076°50'0 0.0
2018-Jan-22 05:59N 24°43' W 076°50'0 0.0
2018-Jan-22 05:29N 24°43' W 076°50'0 0.0
2018-Jan-22 04:56N 24°43' W 076°50'0 0.0
2018-Jan-22 04:29N 24°43' W 076°50'0 0.0
2018-Jan-22 03:59N 24°43' W 076°50'0 0.0
2018-Jan-22 03:29N 24°43' W 076°50'0 0.1
2018-Jan-22 02:59N 24°43' W 076°50'0 0.1
2018-Jan-22 02:29N 24°43' W 076°50'0 0.1
2018-Jan-22 01:59N 24°43' W 076°50'0 0.0
2018-Jan-22 01:29N 24°43' W 076°50'  
2018-Jan-19 14:12N 25°00' W 077°30'0 0.0
2018-Jan-19 14:00N 25°00' W 077°30'0 0.2
2018-Jan-19 13:30N 25°00' W 077°30'  
Track history (hours):
 
Tides and Currents Weather Stations Pressure Air Temp Water Temp Dewpoint Dewpoint Depression Visibility Wind Speed Wind Dir Waves Ship Positions

M Y Odessa

Last reported at 2018-Jan-27 20:33 UTC. Time now 2018-Feb-21 13:31 UTC.
Position N 24°44' W 077°01'.
Warning: this ship's position is 24 days out of date.

Length 48 m; draft 2.4 m.

Type: Pleasure craft. MMSI: 319010700.

Date/timePositionNaut miles runAvg speedWind from/ knotsBaromVisibWave heightAir tempDewpointWater temp
2018-Jan-27 20:33N 24°44' W 077°01'011.0
2018-Jan-27 20:30N 24°44' W 077°00'611.3
2018-Jan-27 20:00N 24°39' W 076°56'510.5
2018-Jan-27 19:31N 24°35' W 076°53'611.3
2018-Jan-27 19:00N 24°30' W 076°50'  
2018-Jan-23 18:46N 24°31' W 076°49'2 3.5
2018-Jan-23 18:09N 24°33' W 076°49'317.1
2018-Jan-23 18:00N 24°36' W 076°49'0 0.1
2018-Jan-23 17:28N 24°36' W 076°49'4 2.8
2018-Jan-23 16:07N 24°32' W 076°48'0 0.0
2018-Jan-23 15:37N 24°32' W 076°48'0 0.0
2018-Jan-23 15:07N 24°32' W 076°48'0 0.0
2018-Jan-23 14:55N 24°32' W 076°48'0 0.0
2018-Jan-23 11:43N 24°32' W 076°48'0 0.0
2018-Jan-23 11:19N 24°32' W 076°48'0 0.0
2018-Jan-23 08:49N 24°32' W 076°48'0 0.0
2018-Jan-23 08:01N 24°32' W 076°48'0 0.2
2018-Jan-23 07:55N 24°32' W 076°48'0 0.0
2018-Jan-23 07:19N 24°32' W 076°48'0 0.0
2018-Jan-23 06:37N 24°32' W 076°48'0 0.0
2018-Jan-23 06:19N 24°32' W 076°48'0 0.0
2018-Jan-23 05:55N 24°32' W 076°48'0 0.0
2018-Jan-23 05:25N 24°32' W 076°48'0 0.0
2018-Jan-23 04:19N 24°32' W 076°48'0 0.0
2018-Jan-23 03:43N 24°32' W 076°48'0 0.0
2018-Jan-23 03:25N 24°32' W 076°48'0 0.0
2018-Jan-23 02:58N 24°32' W 076°48'0 0.0
2018-Jan-23 02:25N 24°32' W 076°48'0 0.0
2018-Jan-23 01:55N 24°32' W 076°48'0 0.0
2018-Jan-23 01:28N 24°32' W 076°48'0 0.0
2018-Jan-23 00:37N 24°32' W 076°48'0 0.0
2018-Jan-23 00:19N 24°32' W 076°48'0 0.0
2018-Jan-22 23:58N 24°32' W 076°48'0 0.0
2018-Jan-22 23:28N 24°32' W 076°48'0 0.0
2018-Jan-22 22:56N 24°32' W 076°48'0 0.8
2018-Jan-22 22:55N 24°32' W 076°48'3 6.7
2018-Jan-22 22:30N 24°34' W 076°50'3 8.0
2018-Jan-22 22:10N 24°32' W 076°48'4 5.4
2018-Jan-22 21:25N 24°36' W 076°49'0 0.0
2018-Jan-22 20:49N 24°36' W 076°49'2 5.6
2018-Jan-22 20:29N 24°34' W 076°50'3 1.5
2018-Jan-22 18:51N 24°32' W 076°48'1 1.9
2018-Jan-22 18:04N 24°33' W 076°47'0 0.5
2018-Jan-22 17:54N 24°33' W 076°47'1 3.7
2018-Jan-22 17:31N 24°32' W 076°48'0 0.1
2018-Jan-22 17:25N 24°32' W 076°48'015.5
2018-Jan-22 17:23N 24°32' W 076°48'0 0.8
2018-Jan-22 16:52N 24°32' W 076°48'0 2.9
2018-Jan-22 16:42N 24°32' W 076°48'0 1.1
2018-Jan-22 16:19N 24°32' W 076°48'0 0.0
2018-Jan-22 15:44N 24°32' W 076°48'0 1.1
2018-Jan-22 15:29N 24°32' W 076°48'4 8.9
2018-Jan-22 15:00N 24°35' W 076°52'5 9.3
2018-Jan-22 14:30N 24°39' W 076°52'4 8.2
2018-Jan-22 14:01N 24°43' W 076°50'0 0.0
2018-Jan-22 13:29N 24°43' W 076°50'0 0.0
2018-Jan-22 12:59N 24°43' W 076°50'0 0.0
2018-Jan-22 12:29N 24°43' W 076°50'0 0.0
2018-Jan-22 11:59N 24°43' W 076°50'0 0.0
2018-Jan-22 11:29N 24°43' W 076°50'0 0.0
2018-Jan-22 10:59N 24°43' W 076°50'0 0.0
2018-Jan-22 10:29N 24°43' W 076°50'0 0.0
2018-Jan-22 09:59N 24°43' W 076°50'0 0.0
2018-Jan-22 09:29N 24°43' W 076°50'0 0.0
2018-Jan-22 08:59N 24°43' W 076°50'0 0.0
2018-Jan-22 08:29N 24°43' W 076°50'0 0.0
2018-Jan-22 07:59N 24°43' W 076°50'0 0.0
2018-Jan-22 07:29N 24°43' W 076°50'0 0.0
2018-Jan-22 06:59N 24°43' W 076°50'0 0.0
2018-Jan-22 06:29N 24°43' W 076°50'0 0.0
2018-Jan-22 05:59N 24°43' W 076°50'0 0.0
2018-Jan-22 05:29N 24°43' W 076°50'0 0.0
2018-Jan-22 04:56N 24°43' W 076°50'0 0.0
2018-Jan-22 04:29N 24°43' W 076°50'0 0.0
2018-Jan-22 03:59N 24°43' W 076°50'0 0.0
2018-Jan-22 03:29N 24°43' W 076°50'0 0.1
2018-Jan-22 02:59N 24°43' W 076°50'0 0.1
2018-Jan-22 02:29N 24°43' W 076°50'0 0.1
2018-Jan-22 01:59N 24°43' W 076°50'0 0.0
2018-Jan-22 01:29N 24°43' W 076°50'  
2018-Jan-19 14:12N 25°00' W 077°30'0 0.0
2018-Jan-19 14:00N 25°00' W 077°30'0 0.2
2018-Jan-19 13:30N 25°00' W 077°30'  

Dump ship's entire track history